createdAt,value
2019-03-17T00:00:16.121Z,2.60
2019-03-17T00:02:44.920Z,3.15
2019-03-17T00:05:13.810Z,2.80
2019-03-17T00:07:42.672Z,2.70
2019-03-17T00:10:12.236Z,3.30
2019-03-17T00:12:41.079Z,2.70
2019-03-17T00:15:09.875Z,2.98
2019-03-17T00:17:41.603Z,2.90
2019-03-17T00:20:09.155Z,3.52
2019-03-17T00:22:38.024Z,2.75
2019-03-17T00:25:09.685Z,3.67
2019-03-17T00:27:37.351Z,2.67
2019-03-17T00:30:11.727Z,3.30
2019-03-17T00:32:40.509Z,2.50
2019-03-17T00:35:09.635Z,2.83
2019-03-17T00:37:38.443Z,2.90
2019-03-17T00:40:10.519Z,2.70
2019-03-17T00:42:39.300Z,3.30
2019-03-17T00:45:11.506Z,2.77
2019-03-17T00:47:40.385Z,2.75
2019-03-17T00:50:13.697Z,3.60
2019-03-17T00:52:42.486Z,2.90
2019-03-17T00:55:11.232Z,3.10
2019-03-17T00:57:40.154Z,3.40
2019-03-17T01:00:13.786Z,3.30
2019-03-17T01:02:42.737Z,3.22
2019-03-17T01:05:11.608Z,2.92
2019-03-17T01:07:40.422Z,3.85
2019-03-17T01:10:10.036Z,3.50
2019-03-17T01:12:38.805Z,3.00
2019-03-17T01:15:08.167Z,3.27
2019-03-17T01:17:36.945Z,3.35
2019-03-17T01:20:08.256Z,3.52
2019-03-17T01:22:37.187Z,3.62
2019-03-17T01:25:09.395Z,3.02
2019-03-17T01:27:38.147Z,3.47
2019-03-17T01:30:09.851Z,3.40
2019-03-17T01:32:38.633Z,4.00
2019-03-17T01:35:11.370Z,3.98
2019-03-17T01:37:40.208Z,3.60
2019-03-17T01:40:10.057Z,3.55
2019-03-17T01:42:38.860Z,3.90
2019-03-17T01:45:09.198Z,3.87
2019-03-17T01:47:38.075Z,3.77
2019-03-17T01:50:08.669Z,3.75
2019-03-17T01:52:37.598Z,4.15
2019-03-17T01:55:07.121Z,3.35
2019-03-17T01:57:35.911Z,3.42
2019-03-17T02:00:07.153Z,3.50
2019-03-17T02:02:35.970Z,3.70
2019-03-17T02:05:06.095Z,4.10
2019-03-17T02:07:34.958Z,3.75
2019-03-17T02:10:04.704Z,3.67
2019-03-17T02:12:33.501Z,3.40
2019-03-17T02:15:02.425Z,3.70
2019-03-17T02:17:31.325Z,3.92
2019-03-17T02:20:00.340Z,3.92
2019-03-17T02:22:29.351Z,3.98
2019-03-17T02:24:58.075Z,4.10
2019-03-17T02:27:26.951Z,4.10
2019-03-17T02:29:55.697Z,4.00
2019-03-17T02:32:24.538Z,3.47
2019-03-17T02:34:53.380Z,3.70
2019-03-17T02:37:22.172Z,3.75
2019-03-17T02:39:51.021Z,3.47
2019-03-17T02:42:21.213Z,3.52
2019-03-17T02:44:50.011Z,3.67
2019-03-17T02:47:19.382Z,3.80
2019-03-17T02:49:48.173Z,3.58
2019-03-17T02:52:16.935Z,4.25
2019-03-17T02:54:45.769Z,3.35
2019-03-17T02:57:14.562Z,3.65
2019-03-17T02:59:43.371Z,3.15
2019-03-17T03:02:12.159Z,3.95
2019-03-17T03:04:41.623Z,3.90
2019-03-17T03:07:10.410Z,3.55
2019-03-17T03:09:39.187Z,3.87
2019-03-17T03:12:07.981Z,4.30
2019-03-17T03:14:36.820Z,3.70
2019-03-17T03:17:05.618Z,3.80
2019-03-17T03:19:34.342Z,4.45
2019-03-17T03:22:03.239Z,3.72
2019-03-17T03:24:32.021Z,4.47
2019-03-17T03:27:00.974Z,4.10
2019-03-17T03:29:29.763Z,4.55
2019-03-17T03:31:58.605Z,3.65
2019-03-17T03:34:27.442Z,4.60
2019-03-17T03:36:56.339Z,4.55
2019-03-17T03:39:25.126Z,3.52
2019-03-17T03:41:53.910Z,4.37
2019-03-17T03:44:22.779Z,4.33
2019-03-17T03:46:51.582Z,4.22
2019-03-17T03:49:20.323Z,4.05
2019-03-17T03:51:49.095Z,4.35
2019-03-17T03:54:17.954Z,4.53
2019-03-17T03:56:46.956Z,4.65
2019-03-17T03:59:15.719Z,4.08
2019-03-17T04:01:44.551Z,4.97
2019-03-17T04:04:13.412Z,5.10
2019-03-17T04:06:42.135Z,4.65
2019-03-17T04:09:11.022Z,4.50
2019-03-17T04:11:39.908Z,4.85
2019-03-17T04:14:08.843Z,4.60
2019-03-17T04:16:37.629Z,5.92
2019-03-17T04:19:06.499Z,6.25
2019-03-17T04:21:35.371Z,5.87
2019-03-17T04:24:04.305Z,4.78
2019-03-17T04:26:33.691Z,5.50
2019-03-17T04:29:02.518Z,5.35
2019-03-17T04:31:31.306Z,6.03
2019-03-17T04:34:00.102Z,5.67
2019-03-17T04:36:39.441Z,5.78
2019-03-17T04:38:59.935Z,5.65
2019-03-17T04:41:28.705Z,5.28
2019-03-17T04:43:57.448Z,5.85
2019-03-17T04:46:26.301Z,5.20
2019-03-17T04:48:55.243Z,5.10
2019-03-17T04:51:23.975Z,3.10
2019-03-17T04:53:52.705Z,3.15
2019-03-17T04:56:21.561Z,2.47
2019-03-17T04:58:50.329Z,2.87
2019-03-17T05:01:19.126Z,2.40
2019-03-17T05:03:48.058Z,1.82
2019-03-17T05:06:18.190Z,1.75
2019-03-17T05:08:46.921Z,2.10
2019-03-17T05:11:15.679Z,1.80
2019-03-17T05:13:44.355Z,2.30
2019-03-17T05:16:13.217Z,2.30
2019-03-17T05:18:42.061Z,1.67
2019-03-17T05:21:10.878Z,1.87
2019-03-17T05:23:39.670Z,1.87
2019-03-17T05:26:08.466Z,1.70
2019-03-17T05:28:37.301Z,1.30
2019-03-17T05:31:06.093Z,1.37
2019-03-17T05:33:34.935Z,1.30
2019-03-17T05:36:03.814Z,1.25
2019-03-17T05:38:32.543Z,0.95
2019-03-17T05:41:01.298Z,1.02
2019-03-17T05:43:30.091Z,1.12
2019-03-17T05:45:58.818Z,0.93
2019-03-17T05:48:29.048Z,1.10
2019-03-17T05:50:57.838Z,1.10
2019-03-17T05:53:26.573Z,1.22
2019-03-17T05:55:55.507Z,0.88
2019-03-17T05:58:26.171Z,0.75
2019-03-17T06:00:54.797Z,1.00
2019-03-17T06:03:23.689Z,1.02
2019-03-17T06:05:52.496Z,0.70
2019-03-17T06:08:22.337Z,0.90
2019-03-17T06:10:52.502Z,1.20
2019-03-17T06:13:21.405Z,1.15
2019-03-17T06:15:50.279Z,1.00
2019-03-17T06:18:19.490Z,1.07
2019-03-17T06:20:48.926Z,0.78
2019-03-17T06:23:17.775Z,1.02
2019-03-17T06:25:47.238Z,1.35
2019-03-17T06:28:15.981Z,1.17
2019-03-17T06:30:44.769Z,0.90
2019-03-17T06:33:13.634Z,0.78
2019-03-17T06:35:43.695Z,1.30
2019-03-17T06:38:12.389Z,1.10
2019-03-17T06:40:41.042Z,1.70
2019-03-17T06:43:09.842Z,1.62
2019-03-17T06:45:38.663Z,1.12
2019-03-17T06:48:07.481Z,1.40
2019-03-17T06:50:36.259Z,1.12
2019-03-17T06:53:05.128Z,1.30
2019-03-17T06:55:33.931Z,1.22
2019-03-17T06:58:02.725Z,1.77
2019-03-17T07:00:31.816Z,1.12
2019-03-17T07:03:00.571Z,1.80
2019-03-17T07:05:29.393Z,1.57
2019-03-17T07:07:59.782Z,1.50
2019-03-17T07:10:28.704Z,1.77
2019-03-17T07:12:58.531Z,1.60
2019-03-17T07:15:27.524Z,1.32
2019-03-17T07:17:57.536Z,1.27
2019-03-17T07:20:26.555Z,1.57
2019-03-17T07:22:55.473Z,1.50
2019-03-17T07:25:24.362Z,1.37
2019-03-17T07:27:53.713Z,1.55
2019-03-17T07:30:23.827Z,1.92
2019-03-17T07:32:52.827Z,2.15
2019-03-17T07:35:21.754Z,1.62
2019-03-17T07:37:56.630Z,1.60
2019-03-17T07:40:21.550Z,1.60
2019-03-17T07:42:50.436Z,1.42
2019-03-17T07:45:19.415Z,1.52
2019-03-17T07:47:48.348Z,1.70
2019-03-17T07:50:17.323Z,1.80
2019-03-17T07:52:46.615Z,1.75
2019-03-17T07:55:15.430Z,1.50
2019-03-17T07:57:44.425Z,1.40
2019-03-17T08:00:14.088Z,1.65
2019-03-17T08:02:43.067Z,2.50
2019-03-17T08:05:12.011Z,1.67
2019-03-17T08:07:42.798Z,1.30
2019-03-17T08:10:16.668Z,1.37
2019-03-17T08:12:45.492Z,1.90
2019-03-17T08:15:15.059Z,3.08
2019-03-17T08:17:43.845Z,1.72
2019-03-17T08:20:12.920Z,2.00
2019-03-17T08:22:41.769Z,1.35
2019-03-17T08:25:11.747Z,1.65
2019-03-17T08:27:40.635Z,1.75
2019-03-17T08:30:17.186Z,2.50
2019-03-17T08:32:46.108Z,1.55
2019-03-17T08:35:14.958Z,2.10
2019-03-17T08:37:43.897Z,1.40
2019-03-17T08:40:17.330Z,1.55
2019-03-17T08:42:46.209Z,1.98
2019-03-17T08:45:15.174Z,1.77
2019-03-17T08:47:56.741Z,1.82
2019-03-17T08:50:15.185Z,1.87
2019-03-17T08:52:44.015Z,1.40
2019-03-17T08:55:12.858Z,2.10
2019-03-17T08:57:41.749Z,1.80
2019-03-17T09:00:15.682Z,1.80
2019-03-17T09:02:44.487Z,1.80
2019-03-17T09:05:13.350Z,2.05
2019-03-17T09:07:42.174Z,1.90
2019-03-17T09:10:17.200Z,2.30
2019-03-17T09:12:46.092Z,1.70
2019-03-17T09:15:14.884Z,3.25
2019-03-17T09:17:43.744Z,2.37
2019-03-17T09:20:15.298Z,1.70
2019-03-17T09:22:44.162Z,1.77
2019-03-17T09:25:13.039Z,1.70
2019-03-17T09:27:41.767Z,1.75
2019-03-17T09:30:16.403Z,1.85
2019-03-17T09:32:45.198Z,2.15
2019-03-17T09:35:14.130Z,2.10
2019-03-17T09:37:43.034Z,1.80
2019-03-17T09:40:20.716Z,2.00
2019-03-17T09:42:49.494Z,1.80
2019-03-17T09:45:19.433Z,1.67
2019-03-17T09:47:48.298Z,2.15
2019-03-17T09:50:20.542Z,1.32
2019-03-17T09:52:49.444Z,1.40
2019-03-17T09:55:18.338Z,1.62
2019-03-17T09:57:47.141Z,1.10
2019-03-17T10:00:17.984Z,1.42
2019-03-17T10:02:46.883Z,1.10
2019-03-17T10:05:15.697Z,1.27
2019-03-17T10:07:44.614Z,1.30
2019-03-17T10:10:17.714Z,1.60
2019-03-17T10:12:46.600Z,1.55
2019-03-17T10:15:20.202Z,0.93
2019-03-17T10:17:49.009Z,1.20
2019-03-17T10:20:18.819Z,1.10
2019-03-17T10:22:47.634Z,1.17
2019-03-17T10:25:16.486Z,1.32
2019-03-17T10:27:45.356Z,1.20
2019-03-17T10:30:21.930Z,1.40
2019-03-17T10:32:50.840Z,1.37
2019-03-17T10:35:19.717Z,1.15
2019-03-17T10:37:48.557Z,1.22
2019-03-17T10:40:21.597Z,0.88
2019-03-17T10:45:19.412Z,2.42
2019-03-17T10:47:48.180Z,1.85
2019-03-17T10:50:23.217Z,1.10
2019-03-17T10:52:52.051Z,1.32
2019-03-17T10:55:21.308Z,1.10
2019-03-17T10:57:50.081Z,0.80
2019-03-17T11:00:24.927Z,1.10
2019-03-17T11:02:53.716Z,0.80
2019-03-17T11:05:22.519Z,1.35
2019-03-17T11:07:51.422Z,1.00
2019-03-17T11:10:22.722Z,0.82
2019-03-17T11:12:51.681Z,1.12
2019-03-17T11:15:24.159Z,1.27
2019-03-17T11:17:52.940Z,1.00
2019-03-17T11:20:21.746Z,1.32
2019-03-17T11:22:50.602Z,1.20
2019-03-17T11:25:20.536Z,1.12
2019-03-17T11:27:49.318Z,0.95
2019-03-17T11:30:19.571Z,1.02
2019-03-17T11:32:48.482Z,1.02
2019-03-17T11:35:17.333Z,1.00
2019-03-17T11:37:47.103Z,1.30
2019-03-17T11:40:18.972Z,0.93
2019-03-17T11:42:49.882Z,1.00
2019-03-17T11:45:19.890Z,0.88
2019-03-17T11:47:49.185Z,0.98
2019-03-17T11:50:22.539Z,1.07
2019-03-17T11:52:51.685Z,0.90
2019-03-17T11:55:20.563Z,1.12
2019-03-17T11:57:49.490Z,1.00
2019-03-17T12:00:23.014Z,1.12
2019-03-17T12:02:51.869Z,1.22
2019-03-17T12:05:20.785Z,0.80
2019-03-17T12:07:50.523Z,1.02
2019-03-17T12:10:24.038Z,1.07
2019-03-17T12:12:52.905Z,0.75
2019-03-17T12:15:32.539Z,0.78
2019-03-17T12:18:01.466Z,0.80
2019-03-17T12:20:30.387Z,0.82
2019-03-17T12:22:59.690Z,0.80
2019-03-17T12:25:29.010Z,0.68
2019-03-17T12:27:57.861Z,0.50
2019-03-17T12:30:27.639Z,0.62
2019-03-17T12:32:56.871Z,0.93
2019-03-17T12:35:25.958Z,0.85
2019-03-17T12:37:54.857Z,0.70
2019-03-17T12:40:23.686Z,0.90
2019-03-17T12:42:52.584Z,0.80
2019-03-17T12:45:21.413Z,0.70
2019-03-17T12:47:50.284Z,0.95
2019-03-17T12:50:23.256Z,1.00
2019-03-17T12:52:52.096Z,1.10
2019-03-17T12:55:21.621Z,1.00
2019-03-17T12:57:50.554Z,0.80
2019-03-17T13:00:26.892Z,1.50
2019-03-17T13:02:55.891Z,0.80
2019-03-17T13:05:24.744Z,1.07
2019-03-17T13:07:53.631Z,0.75
2019-03-17T13:10:23.047Z,0.60
2019-03-17T13:12:51.883Z,0.53
2019-03-17T13:15:20.748Z,1.20
2019-03-17T13:17:49.677Z,1.45
2019-03-17T13:20:19.356Z,1.87
2019-03-17T13:22:48.183Z,1.92
2019-03-17T13:25:17.177Z,1.20
2019-03-17T13:27:45.924Z,1.90
2019-03-17T13:30:15.771Z,1.55
2019-03-17T13:32:44.845Z,1.12
2019-03-17T13:35:13.698Z,1.15
2019-03-17T13:37:42.537Z,1.30
2019-03-17T13:40:29.010Z,1.22
2019-03-17T13:42:49.140Z,1.07
2019-03-17T13:45:18.071Z,1.40
2019-03-17T13:47:48.077Z,1.50
2019-03-17T13:50:18.152Z,1.30
2019-03-17T13:52:47.041Z,1.70
2019-03-17T13:55:15.929Z,2.08
2019-03-17T13:58:04.343Z,1.60
2019-03-17T14:00:33.213Z,3.95
2019-03-17T14:03:01.985Z,2.27
2019-03-17T14:05:30.862Z,2.37
2019-03-17T14:07:59.883Z,1.75
2019-03-17T14:10:40.003Z,1.77
2019-03-17T14:12:59.837Z,1.70
2019-03-17T14:15:28.688Z,1.70
2019-03-17T14:17:57.580Z,1.40
2019-03-17T14:20:26.782Z,1.20
2019-03-17T14:22:55.657Z,1.65
2019-03-17T14:25:31.157Z,2.62
2019-03-17T14:28:00.126Z,1.70
2019-03-17T14:30:29.014Z,2.42
2019-03-17T14:32:57.909Z,2.15
2019-03-17T14:35:26.735Z,2.42
2019-03-17T14:37:55.966Z,10.05
2019-03-17T14:40:24.809Z,1.85
2019-03-17T14:42:55.828Z,2.05
2019-03-17T14:45:24.855Z,2.22
2019-03-17T14:47:56.530Z,2.00
2019-03-17T14:50:25.841Z,2.10
2019-03-17T14:52:54.715Z,2.00
2019-03-17T14:55:23.546Z,1.27
2019-03-17T14:57:52.398Z,1.72
2019-03-17T15:00:23.435Z,1.60
2019-03-17T15:02:52.327Z,2.37
2019-03-17T15:05:21.172Z,1.32
2019-03-17T15:07:50.014Z,1.32
2019-03-17T15:10:25.767Z,1.67
2019-03-17T15:12:54.651Z,1.60
2019-03-17T15:15:24.552Z,1.60
2019-03-17T15:17:53.483Z,3.20
2019-03-17T15:20:23.582Z,2.30
2019-03-17T15:22:52.496Z,1.92
2019-03-17T15:25:21.368Z,1.40
2019-03-17T15:27:50.223Z,1.82
2019-03-17T15:30:22.033Z,1.85
2019-03-17T15:32:51.155Z,3.83
2019-03-17T15:35:20.042Z,1.00
2019-03-17T15:37:50.084Z,0.90
2019-03-17T15:40:19.843Z,0.72
2019-03-17T15:42:48.742Z,0.50
2019-03-17T15:45:25.508Z,1.05
2019-03-17T15:47:54.410Z,0.90
2019-03-17T15:50:28.196Z,1.32
2019-03-17T15:52:57.076Z,0.93
2019-03-17T15:55:29.635Z,0.80
2019-03-17T15:57:58.501Z,1.10
2019-03-17T16:00:27.385Z,0.75
2019-03-17T16:02:56.272Z,1.20
2019-03-17T16:05:27.212Z,0.82
2019-03-17T16:07:56.064Z,0.85
2019-03-17T16:10:29.397Z,0.90
2019-03-17T16:12:58.138Z,1.42
2019-03-17T16:15:27.038Z,1.20
2019-03-17T16:17:55.904Z,0.98
2019-03-17T16:20:26.790Z,1.25
2019-03-17T16:22:55.786Z,1.00
2019-03-17T16:25:32.222Z,0.85
2019-03-17T16:28:01.802Z,1.17
2019-03-17T16:30:33.764Z,0.88
2019-03-17T16:33:02.574Z,1.15
2019-03-17T16:35:31.441Z,1.30
2019-03-17T16:38:01.710Z,1.75
2019-03-17T16:40:37.661Z,1.42
2019-03-17T16:43:06.538Z,1.80
2019-03-17T16:45:35.490Z,1.42
2019-03-17T16:48:04.464Z,1.80
2019-03-17T16:50:33.367Z,1.75
2019-03-17T16:53:02.809Z,1.40
2019-03-17T16:55:31.753Z,4.35
2019-03-17T16:58:00.567Z,2.08
2019-03-17T17:00:29.442Z,1.92
2019-03-17T17:02:58.268Z,1.55
2019-03-17T17:05:27.238Z,1.27
2019-03-17T17:07:56.143Z,1.42
2019-03-17T17:10:29.720Z,1.25
2019-03-17T17:12:58.526Z,1.22
2019-03-17T17:15:29.313Z,1.45
2019-03-17T17:17:58.293Z,1.80
2019-03-17T17:20:32.325Z,1.80
2019-03-17T17:23:01.189Z,2.00
2019-03-17T17:25:30.019Z,1.77
2019-03-17T17:27:58.937Z,1.70
2019-03-17T17:30:27.760Z,2.12
2019-03-17T17:32:56.687Z,1.60
2019-03-17T17:35:25.499Z,2.20
2019-03-17T17:37:54.265Z,1.70
2019-03-17T17:40:25.157Z,1.95
2019-03-17T17:42:53.922Z,1.65
2019-03-17T17:45:24.790Z,1.37
2019-03-17T17:47:53.611Z,2.05
2019-03-17T17:50:30.670Z,1.90
2019-03-17T17:52:59.515Z,1.60
2019-03-17T17:55:28.348Z,1.70
2019-03-17T17:57:57.370Z,1.80
2019-03-17T18:00:27.891Z,1.70
2019-03-17T18:02:58.832Z,1.40
2019-03-17T18:05:27.334Z,1.40
2019-03-17T18:07:56.206Z,1.72
2019-03-17T18:10:25.030Z,1.55
2019-03-17T18:12:53.944Z,1.20
2019-03-17T18:15:24.137Z,1.80
2019-03-17T18:17:53.039Z,2.45
2019-03-17T18:20:23.302Z,1.52
2019-03-17T18:22:52.285Z,1.40
2019-03-17T18:25:22.161Z,1.27
2019-03-17T18:27:51.040Z,1.70
2019-03-17T18:30:20.951Z,1.92
2019-03-17T18:32:49.832Z,2.05
2019-03-17T18:35:18.833Z,2.05
2019-03-17T18:37:50.909Z,2.40
2019-03-17T18:40:19.495Z,2.47
2019-03-17T18:42:48.454Z,1.80
2019-03-17T18:45:26.609Z,2.33
2019-03-17T18:47:58.434Z,1.90
2019-03-17T18:50:27.346Z,2.25
2019-03-17T18:52:56.290Z,2.83
2019-03-17T18:55:25.215Z,2.98
2019-03-17T18:57:54.024Z,3.50
2019-03-17T19:00:24.273Z,2.35
2019-03-17T19:02:53.179Z,2.80
2019-03-17T19:05:21.941Z,2.52
2019-03-17T19:07:50.886Z,2.50
2019-03-17T19:10:20.686Z,2.75
2019-03-17T19:12:49.704Z,2.70
2019-03-17T19:15:23.144Z,3.72
2019-03-17T19:20:23.900Z,3.22
2019-03-17T19:22:52.695Z,3.12
2019-03-17T19:25:24.041Z,3.47
2019-03-17T19:27:52.865Z,3.20
2019-03-17T19:30:24.883Z,2.90
2019-03-17T19:32:53.818Z,2.80
2019-03-17T19:35:22.659Z,2.98
2019-03-17T19:37:51.510Z,2.60
2019-03-17T19:40:23.316Z,2.92
2019-03-17T19:42:59.321Z,2.72
2019-03-17T19:45:22.593Z,2.75
2019-03-17T19:47:51.460Z,2.58
2019-03-17T19:50:21.490Z,3.17
2019-03-17T19:52:51.869Z,2.80
2019-03-17T19:55:22.193Z,2.85
2019-03-17T19:57:51.091Z,3.20
2019-03-17T20:00:20.730Z,2.90
2019-03-17T20:02:49.921Z,3.17
2019-03-17T20:05:18.929Z,3.42
2019-03-17T20:07:47.694Z,3.02
2019-03-17T20:10:25.358Z,3.75
2019-03-17T20:12:54.611Z,3.20
2019-03-17T20:15:23.468Z,2.00
2019-03-17T20:17:53.322Z,5.45
2019-03-17T20:20:22.170Z,5.67
2019-03-17T20:22:51.038Z,2.10
2019-03-17T20:25:19.855Z,1.80
2019-03-17T20:27:48.717Z,2.00
2019-03-17T20:30:21.139Z,2.17
2019-03-17T20:32:50.091Z,2.40
2019-03-17T20:35:18.904Z,2.83
2019-03-17T20:37:47.720Z,3.10
2019-03-17T20:40:18.455Z,2.87
2019-03-17T20:42:47.284Z,3.17
2019-03-17T20:45:19.898Z,3.85
2019-03-17T20:47:47.134Z,3.50
2019-03-17T20:50:19.628Z,2.80
2019-03-17T20:52:48.532Z,2.90
2019-03-17T20:55:17.329Z,3.37
2019-03-17T20:57:46.211Z,3.35
2019-03-17T21:00:16.875Z,3.72
2019-03-17T21:02:45.768Z,3.05
2019-03-17T21:05:15.170Z,2.80
2019-03-17T21:07:45.937Z,3.85
2019-03-17T21:10:15.615Z,3.10
2019-03-17T21:12:46.099Z,3.60
2019-03-17T21:15:22.441Z,3.55
2019-03-17T21:17:51.376Z,4.35
2019-03-17T21:20:24.061Z,2.33
2019-03-17T21:22:52.947Z,2.72
2019-03-17T21:25:21.831Z,2.40
2019-03-17T21:27:50.629Z,2.67
2019-03-17T21:30:27.104Z,2.10
2019-03-17T21:32:56.030Z,2.60
2019-03-17T21:35:24.863Z,2.70
2019-03-17T21:37:53.685Z,2.35
2019-03-17T21:40:24.143Z,2.62
2019-03-17T21:42:52.980Z,2.50
2019-03-17T21:45:21.865Z,2.45
2019-03-17T21:47:50.641Z,2.12
2019-03-17T21:50:20.484Z,2.40
2019-03-17T21:52:49.406Z,2.00
2019-03-17T21:55:18.174Z,1.98
2019-03-17T21:57:47.178Z,2.20
2019-03-17T22:00:17.868Z,2.10
2019-03-17T22:02:46.796Z,2.02
2019-03-17T22:05:15.584Z,2.20
2019-03-17T22:07:50.176Z,2.40
2019-03-17T22:10:19.433Z,3.02
2019-03-17T22:12:48.325Z,2.12
2019-03-17T22:15:18.034Z,2.17
2019-03-17T22:17:47.023Z,1.80
2019-03-17T22:20:17.199Z,2.50
2019-03-17T22:22:45.992Z,2.15
2019-03-17T22:25:15.462Z,1.95
2019-03-17T22:27:44.279Z,1.98
2019-03-17T22:30:20.638Z,2.47
2019-03-17T22:32:49.461Z,2.33
2019-03-17T22:35:18.349Z,1.92
2019-03-17T22:37:47.103Z,2.40
2019-03-17T22:40:16.906Z,2.17
2019-03-17T22:42:45.737Z,2.22
2019-03-17T22:45:16.156Z,3.45
2019-03-17T22:47:45.027Z,2.87
2019-03-17T22:50:15.774Z,2.55
2019-03-17T22:52:46.064Z,2.10
2019-03-17T22:55:14.900Z,2.30
2019-03-17T22:57:43.772Z,2.15
2019-03-17T23:00:16.512Z,4.28
2019-03-17T23:02:45.354Z,2.25
2019-03-17T23:05:14.228Z,3.22
2019-03-17T23:07:42.993Z,2.65
2019-03-17T23:10:12.684Z,2.40
2019-03-17T23:12:41.528Z,2.15
2019-03-17T23:15:11.808Z,2.05
2019-03-17T23:17:40.622Z,2.22
2019-03-17T23:20:14.376Z,2.30
2019-03-17T23:22:43.299Z,2.25
2019-03-17T23:25:12.554Z,2.20
2019-03-17T23:27:41.436Z,2.45
2019-03-17T23:30:22.756Z,3.02
2019-03-17T23:32:51.589Z,2.15
2019-03-17T23:35:20.439Z,2.58
2019-03-17T23:37:49.304Z,2.00
2019-03-17T23:40:20.188Z,2.30
2019-03-17T23:42:49.070Z,2.72
2019-03-17T23:45:18.048Z,1.95
2019-03-17T23:47:46.881Z,2.80
2019-03-17T23:50:15.736Z,2.47
2019-03-17T23:52:44.731Z,2.27
2019-03-17T23:55:14.646Z,1.90
2019-03-17T23:57:43.479Z,2.50
